Time;durP1;ratioP1;P1;durP2;ratioP2;P2;SDS_P1;SDS_P2;PMS_P1;PMS_P2;Temp;Humidity;BMP_temperature;BMP_pressure;BME280_temperature;BME280_humidity;BME280_pressure;Samples;Min_cycle;Max_cycle;Signal;HPM_P1;HPM_P2
2022/02/22 00:01:55;;;;;;;34.97;5.47;;;6.60;99.90;;;;;;5016713;28;20084;-91
2022/02/22 00:04:21;;;;;;;33.37;4.50;;;6.60;99.90;;;;;;5017065;28;20028;-88
2022/02/22 00:06:47;;;;;;;35.47;5.87;;;6.60;99.90;;;;;;5017220;28;20029;-88
2022/02/22 00:09:13;;;;;;;41.10;6.00;;;6.60;99.90;;;;;;5018340;28;20033;-88
2022/02/22 00:11:39;;;;;;;42.13;5.63;;;6.60;99.90;;;;;;5033901;28;20537;-89
2022/02/22 00:14:05;;;;;;;43.47;5.67;;;6.60;99.90;;;;;;5040854;28;20049;-89
2022/02/22 00:16:30;;;;;;;41.90;5.53;;;6.70;99.90;;;;;;5036517;28;20535;-89
2022/02/22 00:18:56;;;;;;;45.07;5.93;;;6.60;99.90;;;;;;5036675;28;20481;-86
2022/02/22 00:21:22;;;;;;;29.63;4.90;;;6.60;99.90;;;;;;5035012;28;20044;-89
2022/02/22 00:23:47;;;;;;;37.83;5.10;;;6.80;99.90;;;;;;5053123;28;20025;-91
2022/02/22 00:26:13;;;;;;;43.50;6.17;;;6.60;99.90;;;;;;5036167;28;20393;-89
2022/02/22 00:28:39;;;;;;;40.80;5.70;;;6.60;99.90;;;;;;5052848;28;20115;-89
2022/02/22 00:31:04;;;;;;;31.10;6.73;;;6.60;99.90;;;;;;5033289;28;20128;-90
2022/02/22 00:33:30;;;;;;;38.10;4.60;;;6.60;99.90;;;;;;5049831;28;20044;-91
2022/02/22 00:35:56;;;;;;;32.70;4.30;;;6.60;99.90;;;;;;5049452;28;20103;-88
2022/02/22 00:38:22;;;;;;;42.57;7.37;;;6.60;99.90;;;;;;5049691;28;20028;-91
2022/02/22 00:40:48;;;;;;;35.13;4.90;;;6.60;99.90;;;;;;5050024;28;20480;-91
2022/02/22 00:43:14;;;;;;;26.40;5.83;;;6.60;99.90;;;;;;5053411;28;20029;-91
2022/02/22 00:45:40;;;;;;;35.33;5.47;;;6.60;99.90;;;;;;5053054;28;20036;-91
2022/02/22 00:48:06;;;;;;;28.50;4.67;;;6.50;99.90;;;;;;5052988;28;20029;-90
2022/02/22 00:50:34;;;;;;;33.47;4.43;;;6.40;99.90;;;;;;5052899;28;20028;-90
2022/02/22 00:53:00;;;;;;;30.37;4.53;;;6.50;99.90;;;;;;5053053;28;20100;-90
2022/02/22 00:55:26;;;;;;;28.30;4.17;;;6.40;99.90;;;;;;5037075;28;20473;-87
2022/02/22 00:57:52;;;;;;;31.00;5.07;;;6.40;99.90;;;;;;5037003;28;20018;-89
2022/02/22 01:00:19;;;;;;;40.83;6.27;;;6.30;99.90;;;;;;5055617;28;20029;-90
2022/02/22 01:02:45;;;;;;;28.37;4.10;;;6.40;99.90;;;;;;5053228;28;20074;-89
2022/02/22 01:05:11;;;;;;;35.13;4.93;;;6.30;99.90;;;;;;5053615;28;20048;-89
2022/02/22 01:07:37;;;;;;;32.83;4.73;;;6.30;99.90;;;;;;5055683;28;20032;-90
2022/02/22 01:10:05;;;;;;;44.33;6.23;;;6.30;99.90;;;;;;5054265;28;20020;-89
2022/02/22 01:12:30;;;;;;;39.57;4.93;;;6.20;99.90;;;;;;5053884;28;20025;-92
2022/02/22 01:14:56;;;;;;;34.57;4.57;;;6.20;99.90;;;;;;5039981;28;20029;-89
2022/02/22 01:17:24;;;;;;;34.50;5.10;;;6.20;99.90;;;;;;5057010;28;20025;-90
2022/02/22 01:19:50;;;;;;;40.70;5.70;;;6.10;99.90;;;;;;5040322;28;20107;-89
2022/02/22 01:22:16;;;;;;;40.57;5.57;;;6.10;99.90;;;;;;5056302;28;20052;-90
2022/02/22 01:24:41;;;;;;;44.20;6.43;;;6.00;99.90;;;;;;5057028;28;20469;-90
2022/02/22 01:27:07;;;;;;;34.07;4.93;;;6.00;99.90;;;;;;5057470;28;20025;-89
2022/02/22 01:29:34;;;;;;;44.07;5.50;;;5.90;99.90;;;;;;5056683;28;20052;-90
2022/02/22 01:31:59;;;;;;;29.47;4.33;;;5.90;99.90;;;;;;5038582;28;20191;-89
2022/02/22 01:34:25;;;;;;;29.90;4.43;;;5.90;99.90;;;;;;5037002;28;20064;-89
2022/02/22 01:36:51;;;;;;;25.07;4.47;;;5.90;99.90;;;;;;5021142;28;20620;-89
2022/02/22 01:39:17;;;;;;;33.90;4.93;;;5.80;99.90;;;;;;5036639;28;20022;-89
2022/02/22 01:41:46;;;;;;;34.57;4.33;;;5.80;99.90;;;;;;5037871;28;20047;-86
2022/02/22 01:44:14;;;;;;;34.23;4.93;;;5.70;99.90;;;;;;5037901;28;20470;-88
2022/02/22 01:46:40;;;;;;;36.40;5.77;;;5.70;99.90;;;;;;5037626;28;20025;-87
2022/02/22 01:49:06;;;;;;;35.97;6.27;;;5.70;99.90;;;;;;5021452;28;20056;-90
2022/02/22 01:51:32;;;;;;;42.93;5.53;;;5.70;99.90;;;;;;5038413;28;20033;-90
2022/02/22 01:53:58;;;;;;;36.53;4.53;;;5.60;99.90;;;;;;5038101;28;20032;-89
2022/02/22 01:56:24;;;;;;;29.20;5.13;;;5.70;99.90;;;;;;5037474;28;20029;-89
2022/02/22 01:58:51;;;;;;;32.90;6.87;;;5.60;99.90;;;;;;5037293;28;20416;-88
2022/02/22 02:01:17;;;;;;;28.37;3.63;;;5.60;99.90;;;;;;5037839;28;20030;-91
2022/02/22 02:03:45;;;;;;;36.97;5.07;;;5.60;99.90;;;;;;5038105;28;20093;-90
2022/02/22 02:06:11;;;;;;;29.90;4.50;;;5.50;99.90;;;;;;5038903;28;20032;-91
2022/02/22 02:08:37;;;;;;;36.57;4.23;;;5.40;99.90;;;;;;5037615;28;20025;-90
2022/02/22 02:11:09;;;;;;;24.83;4.20;;;5.40;99.90;;;;;;5021271;28;20040;-89
2022/02/22 02:13:35;;;;;;;48.57;6.17;;;5.40;99.90;;;;;;5038347;28;20017;-89
2022/02/22 02:16:00;;;;;;;35.13;4.03;;;5.40;99.90;;;;;;5037189;28;20024;-89
2022/02/22 02:18:26;;;;;;;36.40;4.87;;;5.30;99.90;;;;;;5036925;28;20036;-89
2022/02/22 02:20:52;;;;;;;26.67;4.07;;;5.20;99.90;;;;;;5037898;28;20017;-89
2022/02/22 02:23:18;;;;;;;46.37;5.70;;;5.20;99.90;;;;;;5037540;28;20481;-89
2022/02/22 02:25:45;;;;;;;37.57;5.90;;;5.20;99.90;;;;;;5037672;28;20072;-90
2022/02/22 02:28:11;;;;;;;29.60;5.40;;;5.20;99.90;;;;;;5035884;28;20029;-90
2022/02/22 02:30:40;;;;;;;37.23;6.23;;;5.10;99.90;;;;;;5037358;28;20021;-90
2022/02/22 02:33:05;;;;;;;30.87;5.47;;;5.10;99.90;;;;;;5056506;28;20485;-89
2022/02/22 02:35:32;;;;;;;35.37;4.47;;;5.00;99.90;;;;;;5056057;28;20071;-91
2022/02/22 02:37:58;;;;;;;36.50;3.93;;;5.00;99.90;;;;;;5056101;28;20024;-90
2022/02/22 02:40:24;;;;;;;34.77;6.00;;;5.00;99.90;;;;;;5056606;28;20025;-90
2022/02/22 02:42:50;;;;;;;32.10;4.10;;;5.00;99.90;;;;;;5055110;28;20538;-90
2022/02/22 02:45:15;;;;;;;39.03;4.87;;;5.00;99.90;;;;;;5055688;28;20029;-90
2022/02/22 02:47:41;;;;;;;35.53;5.00;;;4.80;99.90;;;;;;5038348;28;20032;-91
2022/02/22 02:50:08;;;;;;;38.80;6.47;;;4.90;99.90;;;;;;5055109;28;20107;-88
2022/02/22 02:52:34;;;;;;;34.80;5.47;;;4.90;99.90;;;;;;5055360;28;20028;-91
2022/02/22 02:55:00;;;;;;;31.40;4.07;;;4.90;99.90;;;;;;5038259;28;20017;-91
2022/02/22 02:57:36;;;;;;;36.80;4.23;;;4.90;99.90;;;;;;5054983;28;20028;-90
2022/02/22 03:00:06;;;;;;;32.93;4.27;;;4.90;99.90;;;;;;5055130;28;20108;-90
2022/02/22 03:02:32;;;;;;;32.80;5.43;;;4.80;99.90;;;;;;5055034;28;20070;-91
2022/02/22 03:04:59;;;;;;;31.53;4.80;;;4.80;99.90;;;;;;5054613;28;20021;-88
2022/02/22 03:07:26;;;;;;;51.27;6.13;;;4.90;99.90;;;;;;5054721;28;20017;-90
2022/02/22 03:09:52;;;;;;;25.63;3.57;;;4.80;99.90;;;;;;5055084;28;20014;-92
2022/02/22 03:12:18;;;;;;;30.20;4.10;;;4.70;99.90;;;;;;5054904;28;20024;-91
2022/02/22 03:14:47;;;;;;;33.10;5.27;;;4.70;99.90;;;;;;5055284;28;20496;-90
2022/02/22 03:17:13;;;;;;;42.43;6.10;;;4.70;99.90;;;;;;5055039;28;20115;-90
2022/02/22 03:19:39;;;;;;;28.60;4.00;;;4.70;99.90;;;;;;5055357;28;20081;-91
2022/02/22 03:22:05;;;;;;;29.43;4.63;;;4.70;99.90;;;;;;5054920;28;20021;-90
2022/02/22 03:24:30;;;;;;;35.30;5.40;;;4.70;99.90;;;;;;5038300;28;20040;-89
2022/02/22 03:26:56;;;;;;;24.93;4.03;;;4.70;99.90;;;;;;5054766;28;20095;-91
2022/02/22 03:29:22;;;;;;;27.97;4.97;;;4.70;99.90;;;;;;5055789;28;20029;-90
2022/02/22 03:31:47;;;;;;;33.60;4.63;;;4.70;99.90;;;;;;5037901;28;20056;-90
2022/02/22 03:34:13;;;;;;;31.70;5.20;;;4.60;99.90;;;;;;5054560;28;20025;-91
2022/02/22 03:36:39;;;;;;;29.33;4.33;;;4.60;99.90;;;;;;5054242;28;20029;-88
2022/02/22 03:39:05;;;;;;;30.90;3.60;;;4.60;99.90;;;;;;5054409;28;20466;-89
2022/02/22 03:41:30;;;;;;;33.00;4.07;;;4.60;99.90;;;;;;5054024;28;20051;-89
2022/02/22 03:43:56;;;;;;;26.07;4.37;;;4.60;99.90;;;;;;5037685;28;20191;-89
2022/02/22 03:46:22;;;;;;;29.30;5.73;;;4.50;99.90;;;;;;5053775;28;20029;-89
2022/02/22 03:48:48;;;;;;;27.87;4.43;;;4.60;99.90;;;;;;5037563;28;20131;-89
2022/02/22 03:51:13;;;;;;;23.33;3.90;;;4.60;99.90;;;;;;5053905;28;20453;-90
2022/02/22 03:53:39;;;;;;;31.40;4.10;;;4.60;99.90;;;;;;5054484;28;20461;-89
2022/02/22 03:56:05;;;;;;;33.93;4.43;;;4.50;99.90;;;;;;5037781;28;20029;-90
2022/02/22 03:58:30;;;;;;;38.30;4.43;;;4.60;99.90;;;;;;5054017;28;20075;-89
2022/02/22 04:00:56;;;;;;;33.83;4.63;;;4.50;99.90;;;;;;5054187;28;20094;-90
2022/02/22 04:03:22;;;;;;;31.30;4.73;;;4.60;99.90;;;;;;5054532;28;20025;-90
2022/02/22 04:05:47;;;;;;;26.40;3.67;;;4.50;99.90;;;;;;5048548;28;20029;-89
2022/02/22 04:08:14;;;;;;;24.70;3.63;;;4.50;99.90;;;;;;5043346;28;20088;-90
2022/02/22 04:10:41;;;;;;;39.27;4.80;;;4.50;99.90;;;;;;5038571;28;20028;-89
2022/02/22 04:13:07;;;;;;;26.93;3.07;;;4.60;99.90;;;;;;5021478;28;20032;-90
2022/02/22 04:15:33;;;;;;;24.57;4.07;;;4.50;99.90;;;;;;5039472;28;20029;-90
2022/02/22 04:17:59;;;;;;;31.63;4.23;;;4.50;99.90;;;;;;5021342;28;20055;-89
2022/02/22 04:20:25;;;;;;;25.43;3.67;;;4.50;99.90;;;;;;5036955;28;20036;-90
2022/02/22 04:22:51;;;;;;;25.00;3.50;;;4.50;99.90;;;;;;5033882;28;20025;-90
2022/02/22 04:25:16;;;;;;;32.03;4.37;;;4.50;99.90;;;;;;5033832;28;20039;-90
2022/02/22 04:27:42;;;;;;;27.80;3.30;;;4.50;99.90;;;;;;5034173;28;20052;-89
2022/02/22 04:30:08;;;;;;;28.00;4.23;;;4.60;99.90;;;;;;5033535;28;20477;-90
2022/02/22 04:32:34;;;;;;;17.73;3.13;;;4.50;99.90;;;;;;5033467;28;20041;-89
2022/02/22 04:35:00;;;;;;;31.97;4.27;;;4.50;99.90;;;;;;5035387;28;20048;-90
2022/02/22 04:37:26;;;;;;;41.17;5.20;;;4.50;99.90;;;;;;5042071;28;20021;-90
2022/02/22 04:39:51;;;;;;;27.50;4.33;;;4.50;99.90;;;;;;5053787;28;20048;-89
2022/02/22 04:42:18;;;;;;;30.23;3.77;;;4.50;99.90;;;;;;5039587;28;20037;-91
2022/02/22 04:44:44;;;;;;;30.87;4.43;;;4.50;99.90;;;;;;5021176;28;20086;-90
2022/02/22 04:47:11;;;;;;;24.83;3.47;;;4.60;99.90;;;;;;5055076;28;20029;-91
2022/02/22 04:49:37;;;;;;;30.67;4.83;;;4.50;99.90;;;;;;5057776;28;20032;-90
2022/02/22 04:52:04;;;;;;;27.87;4.33;;;4.40;99.90;;;;;;5057704;28;20028;-90
2022/02/22 04:54:30;;;;;;;25.80;3.80;;;4.40;99.90;;;;;;5057132;28;20120;-90
2022/02/22 04:56:56;;;;;;;25.93;4.43;;;4.40;99.90;;;;;;5057115;28;20052;-90
2022/02/22 04:59:24;;;;;;;35.00;4.23;;;4.40;99.90;;;;;;5057269;28;20049;-90
2022/02/22 05:01:50;;;;;;;26.40;4.73;;;4.40;99.90;;;;;;5057255;28;20029;-89
2022/02/22 05:04:15;;;;;;;28.03;4.80;;;4.30;99.90;;;;;;5056602;28;20036;-90
2022/02/22 05:06:44;;;;;;;31.00;3.53;;;4.30;99.90;;;;;;5056865;28;20405;-88
2022/02/22 05:09:10;;;;;;;25.93;4.13;;;4.30;99.90;;;;;;5056738;28;20025;-92
2022/02/22 05:11:36;;;;;;;24.53;4.20;;;4.30;99.90;;;;;;5040477;28;20035;-90
2022/02/22 05:14:03;;;;;;;32.30;4.33;;;4.30;99.90;;;;;;5057345;28;20408;-91
2022/02/22 05:23:35;;;;;;;26.33;3.33;;;4.20;99.90;;;;;;5038363;28;20092;-91
2022/02/22 05:26:05;;;;;;;35.27;4.17;;;4.20;99.90;;;;;;5045881;28;20013;-91
2022/02/22 05:28:32;;;;;;;35.83;4.20;;;4.20;99.90;;;;;;5056852;28;20112;-90
2022/02/22 05:30:58;;;;;;;31.00;4.03;;;4.20;99.90;;;;;;5056999;28;20049;-91
2022/02/22 05:33:23;;;;;;;22.47;3.40;;;4.20;99.90;;;;;;5056413;28;20040;-89
2022/02/22 05:35:52;;;;;;;32.07;4.10;;;4.20;99.90;;;;;;5054308;28;20028;-90
2022/02/22 05:38:18;;;;;;;25.07;2.87;;;4.10;99.90;;;;;;5036146;28;20109;-87
2022/02/22 05:40:44;;;;;;;20.37;3.00;;;4.10;99.90;;;;;;5036112;28;20022;-89
2022/02/22 05:43:10;;;;;;;27.00;4.27;;;4.10;99.90;;;;;;5035943;28;20032;-90
2022/02/22 05:45:36;;;;;;;28.50;3.37;;;4.00;99.90;;;;;;5036163;28;20018;-90
2022/02/22 05:48:03;;;;;;;29.87;3.60;;;4.00;99.90;;;;;;5036062;28;20500;-91
2022/02/22 05:50:29;;;;;;;25.03;4.03;;;4.00;99.90;;;;;;5036174;28;20028;-90
2022/02/22 05:52:57;;;;;;;25.20;3.67;;;4.00;99.90;;;;;;5036097;28;20022;-89
2022/02/22 05:55:25;;;;;;;31.90;4.57;;;3.90;99.90;;;;;;5020421;28;20033;-91
2022/02/22 05:57:51;;;;;;;22.63;4.27;;;3.90;99.90;;;;;;5036047;28;20029;-91
2022/02/22 06:00:20;;;;;;;30.47;3.20;;;3.90;99.90;;;;;;5036178;28;20055;-91
2022/02/22 06:02:46;;;;;;;35.20;3.77;;;3.90;99.90;;;;;;5036535;28;20032;-91
2022/02/22 06:05:51;;;;;;;;;;;;;;;;;;;;;
2022/02/22 06:08:55;;;;;;;23.45;3.72;;;4.00;99.90;;;;;;5036085;28;20489;-86
2022/02/22 06:11:21;;;;;;;20.57;2.47;;;3.90;99.90;;;;;;5042134;28;20456;-87
2022/02/22 06:13:48;;;;;;;17.43;3.63;;;3.90;99.90;;;;;;5048033;28;20279;-87
2022/02/22 06:16:13;;;;;;;29.10;3.80;;;4.00;99.90;;;;;;5051565;28;20021;-86
2022/02/22 06:18:39;;;;;;;18.77;2.27;;;4.00;99.90;;;;;;5049735;28;20386;-86
2022/02/22 06:21:05;;;;;;;20.63;2.63;;;4.00;99.90;;;;;;5032197;28;20029;-86
2022/02/22 06:23:30;;;;;;;28.73;2.80;;;4.00;99.90;;;;;;5035692;28;20511;-89
2022/02/22 06:25:56;;;;;;;23.87;3.63;;;4.00;99.90;;;;;;5040557;28;20029;-85
2022/02/22 06:28:22;;;;;;;21.90;2.90;;;4.00;99.90;;;;;;5021641;28;20120;-87
2022/02/22 06:30:47;;;;;;;16.63;2.93;;;4.00;99.90;;;;;;5051655;28;20021;-87
2022/02/22 06:33:13;;;;;;;17.07;2.23;;;4.10;99.90;;;;;;5054862;28;20077;-86
2022/02/22 06:35:39;;;;;;;23.00;2.90;;;4.00;99.90;;;;;;5047462;28;20025;-88
2022/02/22 06:38:04;;;;;;;26.50;3.33;;;4.10;99.90;;;;;;5035035;28;20124;-87
2022/02/22 06:40:31;;;;;;;20.73;2.77;;;4.00;99.90;;;;;;5030165;28;20034;-87
2022/02/22 06:42:57;;;;;;;19.87;3.30;;;4.20;99.90;;;;;;5035552;28;20029;-88
2022/02/22 06:45:23;;;;;;;25.63;3.33;;;4.00;99.90;;;;;;5054636;28;20074;-87
2022/02/22 06:47:49;;;;;;;27.53;3.73;;;4.00;99.90;;;;;;5022129;28;20033;-87
2022/02/22 06:50:16;;;;;;;20.53;2.40;;;4.10;99.90;;;;;;5038731;28;20037;-88
2022/02/22 06:52:42;;;;;;;25.20;2.70;;;4.20;99.90;;;;;;5052234;28;20029;-88
2022/02/22 06:55:12;;;;;;;17.37;2.83;;;4.20;99.90;;;;;;5034864;28;20036;-87
2022/02/22 06:57:39;;;;;;;21.00;3.10;;;4.20;99.90;;;;;;5051489;28;20026;-87
2022/02/22 07:00:09;;;;;;;22.53;2.90;;;4.20;99.90;;;;;;5038794;28;20021;-87
2022/02/22 07:02:35;;;;;;;20.07;2.80;;;4.20;99.90;;;;;;5053839;28;20028;-88
2022/02/22 07:05:01;;;;;;;28.67;3.20;;;4.20;99.90;;;;;;5017963;28;20573;-87
2022/02/22 07:07:27;;;;;;;19.13;2.60;;;4.30;99.90;;;;;;5032758;28;20065;-85
2022/02/22 07:09:53;;;;;;;25.37;2.77;;;4.30;99.90;;;;;;5032383;28;20121;-85
2022/02/22 07:12:18;;;;;;;20.40;2.87;;;4.20;99.90;;;;;;5032592;28;20045;-84
2022/02/22 07:14:44;;;;;;;19.10;2.90;;;4.40;99.90;;;;;;5033733;28;20032;-86
2022/02/22 07:17:10;;;;;;;16.43;3.23;;;4.40;99.90;;;;;;5033516;28;20026;-85
2022/02/22 07:19:36;;;;;;;24.70;2.97;;;4.40;99.90;;;;;;5052932;28;20066;-84
2022/02/22 07:22:02;;;;;;;16.73;3.53;;;4.50;99.90;;;;;;5053605;28;20024;-86
2022/02/22 07:24:28;;;;;;;19.33;3.67;;;4.60;99.90;;;;;;5036877;28;20043;-84
2022/02/22 07:26:53;;;;;;;16.20;2.90;;;4.60;99.90;;;;;;5055892;28;20516;-86
2022/02/22 07:29:19;;;;;;;27.03;3.37;;;4.70;99.90;;;;;;5039634;28;20400;-85
2022/02/22 07:31:44;;;;;;;26.10;3.37;;;4.80;99.90;;;;;;5038527;28;20089;-86
2022/02/22 07:34:13;;;;;;;18.10;3.37;;;4.80;99.90;;;;;;5022294;28;20033;-86
2022/02/22 07:36:40;;;;;;;25.67;3.60;;;4.80;99.90;;;;;;5022212;28;20091;-87
2022/02/22 07:39:05;;;;;;;23.87;3.53;;;4.80;99.90;;;;;;5055263;28;20499;-85
2022/02/22 07:41:31;;;;;;;19.83;3.10;;;4.80;99.90;;;;;;5054753;28;20033;-85
2022/02/22 07:43:57;;;;;;;16.77;3.20;;;5.00;99.90;;;;;;5054668;28;20128;-85
2022/02/22 07:46:23;;;;;;;15.63;2.50;;;4.80;99.90;;;;;;5037008;28;20434;-85
2022/02/22 07:48:49;;;;;;;19.87;2.27;;;5.00;99.90;;;;;;5022807;28;20028;-85
2022/02/22 07:51:16;;;;;;;24.40;3.33;;;5.00;99.90;;;;;;5038158;28;20061;-87
2022/02/22 07:53:47;;;;;;;19.53;2.53;;;5.00;99.90;;;;;;5055034;28;20029;-86
2022/02/22 07:56:14;;;;;;;16.47;2.00;;;5.10;99.90;;;;;;5039777;28;20048;-87
2022/02/22 07:58:40;;;;;;;17.93;2.57;;;5.10;99.90;;;;;;5055187;28;20021;-86
2022/02/22 08:01:06;;;;;;;24.73;2.87;;;5.20;99.90;;;;;;5056496;28;20080;-86
2022/02/22 08:03:33;;;;;;;25.17;2.97;;;5.30;99.90;;;;;;5054271;28;20036;-84
2022/02/22 08:05:59;;;;;;;21.17;2.97;;;5.40;99.90;;;;;;5038482;28;20465;-85
2022/02/22 08:08:25;;;;;;;30.23;3.33;;;5.50;99.90;;;;;;5040070;28;20044;-86
2022/02/22 08:10:51;;;;;;;19.50;2.50;;;5.60;99.90;;;;;;5055278;28;20469;-86
2022/02/22 08:13:17;;;;;;;17.83;2.33;;;5.60;99.90;;;;;;5055000;28;20056;-84
2022/02/22 08:15:43;;;;;;;25.43;3.10;;;5.70;99.90;;;;;;5053577;28;20147;-86
2022/02/22 08:18:09;;;;;;;27.40;2.70;;;5.80;99.90;;;;;;5040315;28;20029;-85
2022/02/22 08:20:34;;;;;;;16.43;2.43;;;5.90;99.90;;;;;;5038408;28;20096;-86
2022/02/22 08:23:00;;;;;;;22.83;3.37;;;5.80;99.90;;;;;;5055256;28;20077;-84
2022/02/22 08:25:27;;;;;;;20.00;3.43;;;6.00;99.90;;;;;;5021401;28;20082;-86
2022/02/22 08:27:52;;;;;;;21.40;5.00;;;6.10;99.90;;;;;;5054863;28;20025;-85
2022/02/22 08:30:18;;;;;;;25.50;2.80;;;6.10;99.90;;;;;;5055349;28;20028;-86
2022/02/22 08:32:45;;;;;;;20.67;3.57;;;6.20;99.90;;;;;;5036949;28;20497;-84
2022/02/22 08:35:11;;;;;;;25.97;4.17;;;6.30;99.90;;;;;;5021594;28;20025;-85
2022/02/22 08:37:37;;;;;;;26.73;4.30;;;6.30;99.90;;;;;;5055161;28;20059;-85
2022/02/22 08:40:04;;;;;;;21.47;4.07;;;6.30;99.90;;;;;;5055580;28;20721;-86
2022/02/22 08:42:29;;;;;;;25.70;3.90;;;6.40;99.90;;;;;;5055242;28;20028;-87
2022/02/22 08:44:57;;;;;;;20.63;4.03;;;6.50;99.90;;;;;;5021043;28;20033;-83
2022/02/22 08:47:22;;;;;;;20.10;4.23;;;6.50;99.90;;;;;;5038180;28;20116;-87
2022/02/22 08:49:48;;;;;;;23.77;4.03;;;6.60;99.90;;;;;;5056086;28;20059;-85
2022/02/22 08:52:16;;;;;;;21.77;4.13;;;6.70;99.90;;;;;;5038491;28;20126;-84
2022/02/22 08:54:42;;;;;;;27.50;4.80;;;6.70;99.90;;;;;;5057876;28;20021;-86
2022/02/22 08:57:08;;;;;;;25.83;4.47;;;6.70;99.90;;;;;;5039018;28;20104;-85
2022/02/22 08:59:33;;;;;;;18.50;5.57;;;6.90;99.90;;;;;;5021175;28;20546;-84
2022/02/22 09:01:59;;;;;;;25.03;5.53;;;6.90;99.90;;;;;;5036356;28;20032;-84
2022/02/22 09:04:25;;;;;;;29.83;4.87;;;6.80;99.90;;;;;;5055169;28;20068;-86
2022/02/22 09:06:50;;;;;;;22.47;4.73;;;6.90;99.90;;;;;;5023109;28;20052;-85
2022/02/22 09:09:16;;;;;;;26.50;6.00;;;7.00;99.90;;;;;;5022088;28;20033;-86
2022/02/22 09:11:42;;;;;;;28.23;5.80;;;7.00;99.90;;;;;;5036860;28;20021;-85
2022/02/22 09:14:07;;;;;;;27.50;6.10;;;7.10;99.90;;;;;;5056267;28;20025;-86
2022/02/22 09:16:33;;;;;;;23.73;5.13;;;7.10;99.90;;;;;;5038382;28;20032;-86
2022/02/22 09:18:59;;;;;;;25.70;5.80;;;7.20;99.90;;;;;;5057395;28;20013;-85
2022/02/22 09:21:26;;;;;;;25.67;5.10;;;7.30;99.90;;;;;;5022447;28;20032;-85
2022/02/22 09:23:51;;;;;;;22.50;5.53;;;7.50;99.90;;;;;;5054522;28;20071;-88
2022/02/22 09:26:17;;;;;;;24.20;6.23;;;7.40;99.90;;;;;;5054974;28;20021;-86
2022/02/22 09:28:45;;;;;;;23.83;5.87;;;7.50;99.90;;;;;;5039482;28;20473;-87
2022/02/22 09:31:11;;;;;;;18.50;4.67;;;7.50;99.90;;;;;;5040794;28;20022;-86
2022/02/22 09:33:37;;;;;;;21.07;5.43;;;7.50;99.90;;;;;;5034497;28;20448;-88
2022/02/22 09:36:03;;;;;;;27.53;5.30;;;7.70;99.90;;;;;;5021583;28;20071;-86
2022/02/22 09:38:29;;;;;;;28.20;6.37;;;7.60;99.90;;;;;;5037182;28;20056;-90
2022/02/22 09:40:57;;;;;;;24.80;5.80;;;7.60;99.90;;;;;;5039286;28;20018;-85
2022/02/22 09:43:23;;;;;;;33.33;7.83;;;7.80;99.90;;;;;;5021288;28;20036;-84
2022/02/22 09:45:49;;;;;;;28.57;5.80;;;7.70;99.90;;;;;;5022082;28;20389;-85
2022/02/22 09:48:15;;;;;;;28.20;5.93;;;7.70;99.90;;;;;;5038405;28;20022;-87
2022/02/22 09:50:41;;;;;;;32.47;7.10;;;7.70;99.90;;;;;;5038538;28;20036;-85
2022/02/22 09:53:08;;;;;;;25.20;5.27;;;7.70;99.90;;;;;;5038058;28;20023;-85
2022/02/22 09:55:34;;;;;;;21.30;4.97;;;7.70;99.90;;;;;;5038067;28;20144;-87
2022/02/22 09:58:00;;;;;;;35.27;6.33;;;7.70;99.90;;;;;;5037897;28;20057;-85
2022/02/22 10:00:31;;;;;;;27.03;5.87;;;7.80;99.90;;;;;;5037765;28;20018;-85
2022/02/22 10:02:57;;;;;;;23.23;5.17;;;7.70;99.90;;;;;;5021110;28;20018;-87
2022/02/22 10:05:24;;;;;;;21.10;4.77;;;7.70;99.90;;;;;;5037012;28;20374;-86
2022/02/22 10:07:54;;;;;;;22.70;5.30;;;7.90;99.90;;;;;;5036917;28;20021;-84
2022/02/22 10:10:41;;;;;;;33.77;5.93;;;7.90;99.90;;;;;;5036062;28;20028;-85
2022/02/22 10:13:09;;;;;;;28.97;5.47;;;7.80;99.90;;;;;;5036499;28;20478;-86
2022/02/22 10:15:42;;;;;;;28.43;4.87;;;8.00;99.90;;;;;;5035545;28;20026;-86
2022/02/22 10:18:08;;;;;;;30.23;4.67;;;7.90;99.90;;;;;;5019779;28;20025;-84
2022/02/22 10:20:35;;;;;;;23.83;5.40;;;7.90;99.90;;;;;;5037176;28;20022;-86
2022/02/22 10:23:02;;;;;;;26.83;5.07;;;8.00;99.90;;;;;;5020094;28;20017;-85
2022/02/22 10:25:28;;;;;;;26.87;4.57;;;7.90;99.90;;;;;;5019220;28;20028;-88
2022/02/22 10:28:00;;;;;;;23.57;4.37;;;8.00;99.90;;;;;;5036040;28;20025;-85
2022/02/22 10:30:46;;;;;;;26.37;5.87;;;8.00;99.90;;;;;;5038216;28;20021;-85
2022/02/22 10:33:27;;;;;;;29.83;5.00;;;8.00;99.90;;;;;;5036647;28;20087;-87
2022/02/22 10:35:54;;;;;;;24.63;4.70;;;8.10;99.90;;;;;;5037017;28;20033;-84
2022/02/22 10:38:23;;;;;;;31.53;5.03;;;8.10;99.90;;;;;;5037494;28;20036;-86
2022/02/22 10:41:01;;;;;;;25.97;4.93;;;8.20;99.90;;;;;;5036241;28;20029;-85
2022/02/22 10:43:35;;;;;;;28.50;5.10;;;8.20;99.90;;;;;;5020528;28;20088;-86
2022/02/22 10:46:03;;;;;;;23.40;4.57;;;8.20;99.90;;;;;;5036572;28;20116;-84
2022/02/22 10:48:38;;;;;;;29.87;5.73;;;8.10;99.90;;;;;;5038601;28;20052;-86
2022/02/22 10:51:13;;;;;;;34.20;4.43;;;8.20;99.90;;;;;;5019587;28;20033;-87
2022/02/22 10:53:41;;;;;;;28.50;5.67;;;8.20;99.90;;;;;;5036167;28;20053;-87
2022/02/22 10:56:11;;;;;;;25.27;4.83;;;8.20;99.90;;;;;;5038651;28;20022;-87
2022/02/22 10:58:40;;;;;;;26.83;4.87;;;8.20;99.90;;;;;;5037064;28;20033;-85
2022/02/22 11:01:13;;;;;;;26.13;5.53;;;8.30;99.90;;;;;;5034913;28;20030;-80
2022/02/22 11:03:42;;;;;;;23.70;4.50;;;8.30;99.90;;;;;;5017408;28;20057;-81
2022/02/22 11:06:09;;;;;;;30.53;6.13;;;8.30;99.90;;;;;;5020168;28;20545;-82
2022/02/22 11:08:39;;;;;;;26.00;5.33;;;8.20;99.90;;;;;;5053796;28;20481;-86
2022/02/22 11:11:09;;;;;;;30.60;4.87;;;8.20;99.90;;;;;;5053487;28;20488;-84
2022/02/22 11:13:35;;;;;;;30.97;4.70;;;8.30;99.80;;;;;;5053490;28;20123;-84
2022/02/22 11:16:11;;;;;;;30.63;5.30;;;8.40;99.90;;;;;;5055712;28;20040;-87
2022/02/22 11:18:49;;;;;;;23.43;5.33;;;8.40;99.90;;;;;;5055890;28;20025;-86
2022/02/22 11:21:17;;;;;;;29.20;5.13;;;8.40;99.80;;;;;;5054608;28;20029;-85
2022/02/22 11:23:43;;;;;;;23.37;5.00;;;8.40;99.90;;;;;;5037145;28;20033;-87
2022/02/22 11:26:13;;;;;;;22.57;5.67;;;8.40;99.90;;;;;;5054348;28;20021;-84
2022/02/22 11:28:48;;;;;;;27.67;5.43;;;8.40;99.90;;;;;;5053533;28;20029;-86
2022/02/22 11:31:28;;;;;;;35.23;6.77;;;8.40;99.90;;;;;;5056270;28;20033;-86
2022/02/22 11:34:03;;;;;;;32.93;5.80;;;8.40;99.90;;;;;;5057605;28;20045;-86
2022/02/22 11:36:35;;;;;;;27.40;6.13;;;8.40;99.90;;;;;;5057060;28;20112;-85
2022/02/22 11:39:02;;;;;;;29.30;4.83;;;8.40;99.90;;;;;;5056075;28;20029;-85
2022/02/22 11:41:33;;;;;;;37.37;6.50;;;8.40;99.90;;;;;;5056427;28;20061;-84
2022/02/22 11:44:02;;;;;;;31.50;6.33;;;8.20;99.90;;;;;;5055870;28;20033;-88
2022/02/22 11:46:41;;;;;;;33.70;7.47;;;8.30;99.90;;;;;;5054935;28;20052;-85
2022/02/22 11:49:10;;;;;;;28.17;5.47;;;8.20;99.90;;;;;;5055345;28;20029;-85
2022/02/22 11:51:40;;;;;;;36.40;6.53;;;8.10;99.90;;;;;;5056446;28;20090;-84
2022/02/22 11:54:22;;;;;;;31.87;7.30;;;8.10;99.90;;;;;;5055015;28;20473;-84
2022/02/22 11:56:59;;;;;;;37.07;7.40;;;8.00;99.90;;;;;;5055554;28;20048;-85
2022/02/22 11:59:25;;;;;;;30.43;5.47;;;8.10;99.90;;;;;;5054673;28;20107;-84
2022/02/22 12:01:56;;;;;;;39.30;7.97;;;7.90;99.90;;;;;;5038221;28;20055;-85
2022/02/22 12:04:28;;;;;;;33.43;6.80;;;7.90;99.90;;;;;;5055274;28;20033;-84
2022/02/22 12:06:56;;;;;;;35.73;7.47;;;8.00;99.90;;;;;;5053881;28;20079;-85
2022/02/22 12:09:43;;;;;;;38.57;7.90;;;7.90;99.90;;;;;;5038265;28;20033;-85
2022/02/22 12:12:11;;;;;;;32.80;7.00;;;8.00;99.90;;;;;;5038195;28;20035;-85
2022/02/22 12:14:38;;;;;;;37.43;8.13;;;8.00;99.90;;;;;;5038015;28;20028;-86
2022/02/22 12:17:08;;;;;;;39.97;8.40;;;7.90;99.90;;;;;;5054016;28;20025;-86
2022/02/22 12:19:34;;;;;;;34.97;8.33;;;8.00;99.90;;;;;;5055084;28;20031;-86
2022/02/22 12:22:02;;;;;;;35.60;8.23;;;8.00;99.90;;;;;;5037471;28;20112;-85
2022/02/22 12:24:28;;;;;;;49.43;10.10;;;8.00;99.90;;;;;;5055549;28;20107;-86
2022/02/22 12:26:54;;;;;;;31.83;8.10;;;8.10;99.90;;;;;;5055058;28;20110;-86
2022/02/22 12:29:20;;;;;;;36.30;8.83;;;8.20;99.90;;;;;;5054403;28;20029;-86
2022/02/22 12:31:53;;;;;;;32.77;8.70;;;8.10;99.90;;;;;;5053819;28;20395;-85
2022/02/22 12:34:20;;;;;;;32.20;8.45;;;8.20;99.90;;;;;;5055242;28;20461;-84
2022/02/22 12:36:58;;;;;;;39.93;10.20;;;8.30;99.90;;;;;;5055903;28;20037;-84
2022/02/22 12:39:26;;;;;;;36.13;9.30;;;8.40;99.90;;;;;;5055369;28;20179;-85
2022/02/22 12:41:56;;;;;;;32.63;8.53;;;8.40;99.90;;;;;;5038526;28;20056;-85
2022/02/22 12:44:23;;;;;;;30.47;8.37;;;8.50;99.90;;;;;;5054789;28;20017;-85
2022/02/22 12:46:52;;;;;;;38.93;8.50;;;8.50;99.90;;;;;;5054805;28;20029;-87
2022/02/22 12:49:20;;;;;;;35.27;10.97;;;8.60;99.90;;;;;;5054456;28;20029;-85
2022/02/22 12:51:48;;;;;;;30.90;8.90;;;8.60;99.90;;;;;;5052489;28;20029;-86
2022/02/22 12:54:20;;;;;;;29.00;9.87;;;8.60;99.90;;;;;;5018604;28;20022;-87
2022/02/22 12:56:45;;;;;;;34.73;10.43;;;8.60;99.90;;;;;;5034161;28;20056;-85